createdAt,value
2023-05-02T00:00:01.613Z,13.40
2023-05-02T00:01:05.251Z,13.40
2023-05-02T00:02:07.612Z,13.40
2023-05-02T00:03:09.297Z,13.50
2023-05-02T00:04:11.195Z,13.50
2023-05-02T00:05:12.865Z,13.50
2023-05-02T00:06:14.718Z,13.50
2023-05-02T00:07:16.399Z,13.50
2023-05-02T00:08:18.052Z,13.60
2023-05-02T00:09:19.998Z,13.60
2023-05-02T00:10:21.711Z,13.60
2023-05-02T00:11:24.406Z,13.70
2023-05-02T00:12:26.061Z,13.80
2023-05-02T00:13:27.813Z,13.80
2023-05-02T00:14:29.620Z,13.80
2023-05-02T00:15:31.197Z,13.80
2023-05-02T00:16:33.060Z,13.80
2023-05-02T00:17:34.773Z,13.70
2023-05-02T00:18:36.515Z,13.70
2023-05-02T00:19:40.064Z,13.70
2023-05-02T00:20:42.036Z,13.70
2023-05-02T00:21:43.656Z,13.60
2023-05-02T00:22:45.240Z,13.60
2023-05-02T00:23:46.889Z,13.60
2023-05-02T00:24:48.471Z,13.60
2023-05-02T00:25:50.177Z,13.50
2023-05-02T00:26:51.866Z,13.50
2023-05-02T00:27:53.504Z,13.50
2023-05-02T00:28:55.118Z,13.50
2023-05-02T00:29:57.046Z,13.40
2023-05-02T00:30:59.403Z,13.40
2023-05-02T00:32:01.678Z,13.30
2023-05-02T00:33:03.470Z,13.30
2023-05-02T00:34:05.238Z,13.30
2023-05-02T00:35:07.615Z,13.30
2023-05-02T00:36:16.993Z,13.30
2023-05-02T00:37:18.891Z,13.40
2023-05-02T00:38:20.490Z,13.40
2023-05-02T00:39:22.342Z,13.50
2023-05-02T00:40:23.974Z,13.50
2023-05-02T00:41:26.037Z,13.50
2023-05-02T00:42:31.472Z,13.60
2023-05-02T00:43:33.100Z,13.50
2023-05-02T00:44:34.731Z,13.60
2023-05-02T00:45:36.923Z,13.60
2023-05-02T00:46:38.765Z,13.60
2023-05-02T00:47:40.729Z,13.50
2023-05-02T00:48:42.421Z,13.50
2023-05-02T00:49:44.023Z,13.40
2023-05-02T00:50:45.655Z,13.40
2023-05-02T00:51:47.267Z,13.40
2023-05-02T00:52:49.000Z,13.40
2023-05-02T00:53:51.109Z,13.40
2023-05-02T00:54:53.804Z,13.50
2023-05-02T00:55:55.921Z,13.40
2023-05-02T00:56:57.569Z,13.50
2023-05-02T00:58:00.062Z,13.40
2023-05-02T00:59:01.728Z,13.50
2023-05-02T01:00:05.063Z,13.40
2023-05-02T01:01:48.222Z,13.40
2023-05-02T01:02:58.830Z,13.40
2023-05-02T01:04:01.005Z,13.40
2023-05-02T01:05:10.538Z,13.30
2023-05-02T01:06:32.067Z,13.30
2023-05-02T01:08:03.244Z,13.40
2023-05-02T01:09:29.712Z,13.30
2023-05-02T01:10:37.889Z,13.40
2023-05-02T01:12:00.676Z,13.40
2023-05-02T01:13:27.630Z,13.40
2023-05-02T01:14:33.187Z,13.40
2023-05-02T01:15:39.077Z,13.40
2023-05-02T01:16:43.626Z,13.40
2023-05-02T01:17:47.255Z,13.40
2023-05-02T01:18:50.738Z,13.40
2023-05-02T01:19:58.819Z,13.40
2023-05-02T01:21:07.770Z,13.40
2023-05-02T01:22:12.880Z,13.30
2023-05-02T01:23:22.002Z,13.30
2023-05-02T01:24:32.427Z,13.20
2023-05-02T01:25:40.404Z,13.10
2023-05-02T01:27:02.468Z,13.10
2023-05-02T01:28:28.531Z,13.00
2023-05-02T01:29:31.398Z,13.10
2023-05-02T01:30:36.213Z,13.10
2023-05-02T01:31:43.731Z,13.00
2023-05-02T01:32:47.111Z,13.00
2023-05-02T01:33:49.803Z,13.00
2023-05-02T01:34:53.149Z,13.00
2023-05-02T01:35:55.930Z,12.90
2023-05-02T01:36:59.410Z,12.90
2023-05-02T01:38:03.348Z,12.90
2023-05-02T01:39:07.417Z,12.90
2023-05-02T01:40:10.515Z,12.80
2023-05-02T01:41:13.688Z,12.80
2023-05-02T01:42:16.526Z,12.70
2023-05-02T01:43:21.197Z,12.70
2023-05-02T01:44:24.245Z,12.70
2023-05-02T01:45:27.756Z,12.80
2023-05-02T01:46:35.379Z,12.80
2023-05-02T01:47:39.208Z,12.80
2023-05-02T01:48:44.436Z,12.80
2023-05-02T01:49:47.321Z,12.80
2023-05-02T01:50:51.196Z,12.80
2023-05-02T01:51:53.264Z,12.90
2023-05-02T01:52:56.214Z,12.90
2023-05-02T01:54:01.552Z,12.90
2023-05-02T01:55:05.069Z,12.90
2023-05-02T01:56:07.514Z,12.80
2023-05-02T01:57:11.592Z,12.90
2023-05-02T01:58:14.845Z,12.80
2023-05-02T01:59:19.858Z,12.80
2023-05-02T02:00:23.200Z,12.90
2023-05-02T02:01:27.537Z,12.90
2023-05-02T02:02:30.407Z,12.90
2023-05-02T02:03:32.347Z,12.90
2023-05-02T02:04:37.489Z,12.90
2023-05-02T02:05:41.542Z,12.80
2023-05-02T02:06:48.532Z,12.80
2023-05-02T02:07:50.641Z,12.90
2023-05-02T02:08:52.542Z,12.90
2023-05-02T02:09:54.565Z,13.00
2023-05-02T02:11:00.633Z,13.00
2023-05-02T02:12:17.485Z,13.10
2023-05-02T02:13:28.565Z,13.10
2023-05-02T02:14:34.945Z,13.10
2023-05-02T02:15:39.796Z,13.10
2023-05-02T02:16:42.595Z,13.00
2023-05-02T02:17:49.193Z,13.00
2023-05-02T02:18:54.933Z,13.00
2023-05-02T02:19:58.505Z,12.90
2023-05-02T02:21:01.034Z,12.90
2023-05-02T02:22:05.022Z,12.90
2023-05-02T02:23:08.603Z,12.90
2023-05-02T02:24:11.627Z,12.90
2023-05-02T02:25:16.268Z,12.90
2023-05-02T02:26:20.911Z,13.00
2023-05-02T02:27:22.929Z,13.00
2023-05-02T02:28:24.635Z,13.00
2023-05-02T02:29:26.465Z,13.00
2023-05-02T02:30:28.267Z,13.00
2023-05-02T02:31:37.836Z,13.10
2023-05-02T02:32:39.704Z,13.10
2023-05-02T02:33:41.528Z,13.10
2023-05-02T02:34:43.223Z,13.10
2023-05-02T02:35:53.894Z,13.20
2023-05-02T02:37:04.966Z,13.10
2023-05-02T02:38:18.817Z,13.10
2023-05-02T02:39:42.168Z,13.00
2023-05-02T02:40:53.446Z,13.00
2023-05-02T02:42:09.176Z,13.00
2023-05-02T02:43:30.480Z,13.00
2023-05-02T02:44:51.303Z,13.00
2023-05-02T02:46:33.574Z,13.00
2023-05-02T02:47:53.834Z,13.10
2023-05-02T02:49:15.303Z,13.00
2023-05-02T02:50:19.599Z,13.10
2023-05-02T02:51:38.603Z,13.00
2023-05-02T02:52:49.092Z,13.00
2023-05-02T02:54:27.029Z,13.00
2023-05-02T02:55:44.812Z,12.90
2023-05-02T02:56:49.537Z,12.90
2023-05-02T02:58:00.038Z,12.90
2023-05-02T02:59:24.922Z,12.90
2023-05-02T03:00:28.742Z,12.80
2023-05-02T03:01:32.569Z,12.80
2023-05-02T03:02:37.048Z,12.70
2023-05-02T03:03:41.645Z,12.70
2023-05-02T03:04:45.736Z,12.70
2023-05-02T03:05:47.751Z,12.70
2023-05-02T03:06:49.664Z,12.60
2023-05-02T03:07:51.877Z,12.60
2023-05-02T03:08:53.451Z,12.70
2023-05-02T03:09:55.056Z,12.80
2023-05-02T03:10:56.653Z,12.80
2023-05-02T03:11:58.245Z,12.90
2023-05-02T03:13:00.002Z,12.90
2023-05-02T03:14:01.586Z,13.00
2023-05-02T03:15:15.590Z,12.90
2023-05-02T03:16:37.592Z,12.90
2023-05-02T03:17:39.548Z,12.90
2023-05-02T03:18:41.326Z,12.90
2023-05-02T03:19:42.943Z,12.90
2023-05-02T03:20:44.700Z,12.90
2023-05-02T03:21:46.721Z,13.00
2023-05-02T03:22:48.298Z,13.00
2023-05-02T03:23:49.938Z,13.00
2023-05-02T03:24:51.603Z,13.00
2023-05-02T03:25:53.256Z,13.00
2023-05-02T03:26:56.293Z,13.00
2023-05-02T03:27:58.190Z,13.00
2023-05-02T03:28:59.861Z,13.00
2023-05-02T03:30:01.863Z,13.00
2023-05-02T03:31:03.720Z,13.00
2023-05-02T03:32:05.815Z,13.00
2023-05-02T03:33:08.823Z,13.00
2023-05-02T03:34:10.609Z,13.00
2023-05-02T03:35:12.224Z,13.00
2023-05-02T03:36:14.302Z,12.90
2023-05-02T03:37:15.915Z,12.90
2023-05-02T03:38:17.532Z,12.90
2023-05-02T03:39:19.316Z,12.90
2023-05-02T03:40:21.880Z,12.80
2023-05-02T03:41:24.808Z,12.80
2023-05-02T03:42:26.494Z,12.80
2023-05-02T03:43:28.138Z,12.80
2023-05-02T03:44:29.908Z,12.80
2023-05-02T03:45:31.560Z,12.70
2023-05-02T03:46:33.239Z,12.70
2023-05-02T03:47:35.132Z,12.70
2023-05-02T03:48:37.022Z,12.70
2023-05-02T03:49:38.770Z,12.60
2023-05-02T03:50:40.451Z,12.60
2023-05-02T03:51:42.110Z,12.60
2023-05-02T03:52:43.740Z,12.60
2023-05-02T03:53:46.562Z,12.70
2023-05-02T03:54:48.354Z,12.70
2023-05-02T03:55:50.071Z,12.80
2023-05-02T03:56:56.552Z,12.80
2023-05-02T03:57:58.128Z,12.80
2023-05-02T03:58:59.832Z,12.80
2023-05-02T04:00:01.749Z,12.80
2023-05-02T04:01:03.610Z,12.80
2023-05-02T04:02:05.245Z,12.80
2023-05-02T04:03:07.281Z,12.80
2023-05-02T04:04:09.034Z,12.80
2023-05-02T04:05:10.691Z,12.80
2023-05-02T04:06:13.192Z,12.80
2023-05-02T04:07:18.009Z,12.80
2023-05-02T04:08:19.663Z,12.90
2023-05-02T04:09:25.083Z,12.90
2023-05-02T04:10:26.861Z,12.90
2023-05-02T04:11:28.518Z,12.90
2023-05-02T04:12:30.768Z,12.90
2023-05-02T04:13:32.418Z,12.80
2023-05-02T04:14:34.028Z,12.80
2023-05-02T04:15:35.734Z,12.90
2023-05-02T04:16:38.007Z,12.90
2023-05-02T04:17:39.707Z,12.90
2023-05-02T04:18:41.669Z,12.90
2023-05-02T04:19:43.346Z,12.90
2023-05-02T04:20:47.728Z,12.90
2023-05-02T04:21:49.390Z,12.90
2023-05-02T04:22:51.776Z,12.90
2023-05-02T04:23:53.508Z,12.90
2023-05-02T04:24:55.109Z,13.00
2023-05-02T04:25:56.883Z,12.90
2023-05-02T04:26:58.585Z,13.00
2023-05-02T04:28:00.952Z,13.00
2023-05-02T04:29:02.613Z,13.00
2023-05-02T04:30:04.753Z,13.10
2023-05-02T04:31:06.592Z,13.00
2023-05-02T04:32:08.314Z,12.90
2023-05-02T04:33:10.048Z,12.90
2023-05-02T04:34:11.732Z,12.90
2023-05-02T04:35:15.371Z,12.90
2023-05-02T04:36:17.027Z,12.90
2023-05-02T04:37:18.922Z,12.90
2023-05-02T04:38:20.552Z,12.90
2023-05-02T04:39:22.154Z,12.80
2023-05-02T04:40:23.731Z,12.80
2023-05-02T04:41:25.523Z,12.80
2023-05-02T04:42:27.570Z,12.80
2023-05-02T04:43:29.166Z,12.80
2023-05-02T04:44:31.234Z,12.80
2023-05-02T04:45:34.455Z,12.80
2023-05-02T04:46:36.295Z,12.80
2023-05-02T04:47:38.169Z,12.70
2023-05-02T04:48:42.187Z,12.70
2023-05-02T04:49:44.017Z,12.70
2023-05-02T04:50:47.023Z,12.70
2023-05-02T04:51:48.957Z,12.70
2023-05-02T04:52:50.571Z,12.60
2023-05-02T04:53:52.271Z,12.70
2023-05-02T04:54:53.832Z,12.70
2023-05-02T04:55:55.717Z,12.70
2023-05-02T04:56:57.541Z,12.70
2023-05-02T04:57:59.146Z,12.80
2023-05-02T04:59:00.837Z,12.70
2023-05-02T05:00:02.527Z,12.70
2023-05-02T05:01:04.436Z,12.70
2023-05-02T05:02:08.074Z,12.70
2023-05-02T05:03:09.953Z,12.60
2023-05-02T05:04:11.701Z,12.60
2023-05-02T05:05:13.403Z,12.60
2023-05-02T05:06:15.601Z,12.60
2023-05-02T05:07:17.237Z,12.60
2023-05-02T05:08:18.938Z,12.70
2023-05-02T05:09:20.554Z,12.70
2023-05-02T05:10:22.132Z,12.70
2023-05-02T05:11:23.821Z,12.70
2023-05-02T05:12:25.599Z,12.70
2023-05-02T05:13:28.385Z,12.70
2023-05-02T05:14:31.338Z,12.70
2023-05-02T05:15:32.954Z,12.70
2023-05-02T05:16:34.819Z,12.70
2023-05-02T05:17:36.610Z,12.70
2023-05-02T05:18:41.277Z,12.70
2023-05-02T05:19:42.888Z,12.70
2023-05-02T05:20:44.559Z,12.70
2023-05-02T05:21:46.156Z,12.70
2023-05-02T05:22:47.813Z,12.70
2023-05-02T05:23:49.594Z,12.70
2023-05-02T05:24:53.480Z,12.70
2023-05-02T05:25:55.073Z,12.70
2023-05-02T05:26:56.711Z,12.60
2023-05-02T05:28:00.157Z,12.60
2023-05-02T05:29:01.750Z,12.60
2023-05-02T05:30:07.169Z,12.60
2023-05-02T05:31:14.513Z,12.60
2023-05-02T05:32:18.315Z,12.60
2023-05-02T05:33:20.004Z,12.60
2023-05-02T05:34:21.694Z,12.60
2023-05-02T05:35:26.717Z,12.70
2023-05-02T05:36:28.338Z,12.60
2023-05-02T05:37:29.993Z,12.70
2023-05-02T05:38:32.042Z,12.70
2023-05-02T05:39:33.625Z,12.80
2023-05-02T05:40:35.387Z,12.80
2023-05-02T05:41:38.187Z,12.80
2023-05-02T05:42:39.963Z,12.80
2023-05-02T05:43:41.795Z,12.80
2023-05-02T05:44:43.403Z,12.80
2023-05-02T05:45:45.295Z,12.80
2023-05-02T05:46:46.891Z,12.80
2023-05-02T05:47:48.538Z,12.80
2023-05-02T05:48:50.285Z,12.70
2023-05-02T05:49:56.095Z,12.80
2023-05-02T05:50:57.755Z,12.80
2023-05-02T05:52:00.580Z,12.80
2023-05-02T05:53:02.177Z,12.80
2023-05-02T05:54:03.867Z,12.80
2023-05-02T05:55:06.769Z,12.80
2023-05-02T05:56:12.959Z,12.80
2023-05-02T05:57:14.591Z,12.90
2023-05-02T05:58:16.361Z,12.90
2023-05-02T05:59:18.167Z,12.90
2023-05-02T06:00:19.967Z,12.90
2023-05-02T06:01:21.532Z,12.90
2023-05-02T06:02:23.280Z,12.80
2023-05-02T06:03:25.128Z,12.80
2023-05-02T06:04:26.873Z,12.80
2023-05-02T06:05:28.839Z,12.80
2023-05-02T06:06:31.896Z,12.70
2023-05-02T06:07:33.527Z,12.70
2023-05-02T06:08:35.224Z,12.70
2023-05-02T06:09:36.798Z,12.70
2023-05-02T06:10:38.473Z,12.70
2023-05-02T06:11:40.071Z,12.70
2023-05-02T06:12:41.787Z,12.70
2023-05-02T06:13:43.371Z,12.80
2023-05-02T06:14:45.145Z,12.80
2023-05-02T06:15:46.916Z,12.80
2023-05-02T06:16:48.535Z,12.80
2023-05-02T06:17:53.445Z,12.80
2023-05-02T06:18:55.055Z,12.80
2023-05-02T06:19:56.634Z,12.80
2023-05-02T06:20:58.292Z,12.90
2023-05-02T06:21:59.886Z,12.90
2023-05-02T06:23:01.475Z,12.90
2023-05-02T06:24:03.222Z,12.90
2023-05-02T06:25:06.112Z,12.90
2023-05-02T06:26:07.705Z,12.90
2023-05-02T06:27:09.295Z,13.00
2023-05-02T06:28:10.873Z,13.00
2023-05-02T06:29:12.434Z,13.00
2023-05-02T06:30:14.057Z,12.90
2023-05-02T06:31:16.444Z,12.90
2023-05-02T06:32:18.600Z,13.00
2023-05-02T06:33:20.206Z,13.00
2023-05-02T06:34:21.801Z,12.90
2023-05-02T06:35:23.410Z,13.00
2023-05-02T06:36:25.123Z,13.00
2023-05-02T06:37:26.738Z,13.10
2023-05-02T06:38:28.607Z,13.10
2023-05-02T06:39:30.197Z,13.20
2023-05-02T06:40:31.827Z,13.20
2023-05-02T06:41:33.548Z,13.30
2023-05-02T06:42:35.177Z,13.30
2023-05-02T06:43:36.729Z,13.30
2023-05-02T06:44:38.296Z,13.30
2023-05-02T06:45:40.979Z,13.30
2023-05-02T06:46:42.873Z,13.40
2023-05-02T06:47:44.558Z,13.40
2023-05-02T06:48:46.185Z,13.30
2023-05-02T06:49:47.743Z,13.30
2023-05-02T06:50:51.855Z,13.40
2023-05-02T06:51:53.603Z,13.40
2023-05-02T06:52:55.467Z,13.40
2023-05-02T06:53:57.090Z,13.30
2023-05-02T06:54:58.714Z,13.40
2023-05-02T06:56:00.623Z,13.30
2023-05-02T06:57:02.641Z,13.30
2023-05-02T06:58:04.273Z,13.40
2023-05-02T06:59:05.879Z,13.40
2023-05-02T07:00:08.184Z,13.40
2023-05-02T07:01:10.022Z,13.40
2023-05-02T07:02:11.636Z,13.50
2023-05-02T07:03:13.570Z,13.40
2023-05-02T07:04:15.270Z,13.40
2023-05-02T07:05:16.995Z,13.40
2023-05-02T07:06:19.156Z,13.40
2023-05-02T07:07:22.033Z,13.30
2023-05-02T07:08:23.898Z,13.30
2023-05-02T07:09:25.489Z,13.30
2023-05-02T07:10:27.082Z,13.30
2023-05-02T07:11:28.905Z,13.20
2023-05-02T07:12:30.530Z,13.20
2023-05-02T07:13:32.167Z,13.20
2023-05-02T07:14:33.762Z,13.20
2023-05-02T07:15:35.359Z,13.10
2023-05-02T07:16:37.116Z,13.20
2023-05-02T07:17:38.869Z,13.10
2023-05-02T07:18:40.542Z,13.10
2023-05-02T07:19:43.358Z,13.10
2023-05-02T07:20:47.297Z,13.00
2023-05-02T07:21:49.124Z,13.00
2023-05-02T07:22:51.116Z,13.10
2023-05-02T07:23:52.778Z,13.00
2023-05-02T07:25:01.652Z,13.00
2023-05-02T07:26:06.165Z,13.00
2023-05-02T07:27:12.194Z,12.90
2023-05-02T07:28:13.882Z,12.90
2023-05-02T07:29:15.443Z,12.90
2023-05-02T07:30:17.093Z,12.80
2023-05-02T07:31:19.150Z,12.80
2023-05-02T07:32:26.095Z,12.80
2023-05-02T07:33:27.767Z,12.80
2023-05-02T07:34:30.123Z,12.80
2023-05-02T07:35:31.678Z,12.80
2023-05-02T07:36:33.261Z,12.70
2023-05-02T07:37:36.292Z,12.80
2023-05-02T07:38:37.875Z,12.80
2023-05-02T07:39:39.499Z,12.80
2023-05-02T07:40:41.566Z,12.70
2023-05-02T07:41:43.288Z,12.70
2023-05-02T07:42:44.907Z,12.70
2023-05-02T07:43:46.507Z,12.70
2023-05-02T07:44:48.139Z,12.80
2023-05-02T07:45:49.747Z,12.80
2023-05-02T07:46:52.658Z,12.80
2023-05-02T07:47:54.475Z,12.90
2023-05-02T07:48:56.102Z,12.90
2023-05-02T07:49:57.869Z,12.90
2023-05-02T07:51:10.040Z,12.90
2023-05-02T07:52:11.619Z,12.80
2023-05-02T07:53:13.245Z,12.80
2023-05-02T07:54:19.188Z,12.80
2023-05-02T07:55:21.424Z,12.80
2023-05-02T07:56:23.017Z,12.80
2023-05-02T07:57:25.885Z,12.90
2023-05-02T07:58:28.222Z,12.90
2023-05-02T07:59:31.658Z,12.90
2023-05-02T08:00:34.055Z,12.90
2023-05-02T08:01:36.080Z,12.80
2023-05-02T08:02:37.831Z,12.80
2023-05-02T08:03:39.718Z,12.90
2023-05-02T08:04:41.639Z,12.90
2023-05-02T08:05:43.292Z,12.90
2023-05-02T08:06:45.512Z,12.90
2023-05-02T08:07:47.248Z,12.90
2023-05-02T08:08:48.900Z,12.90
2023-05-02T08:09:50.611Z,13.00
2023-05-02T08:10:52.251Z,13.00
2023-05-02T08:11:53.837Z,12.90
2023-05-02T08:12:55.486Z,12.80
2023-05-02T08:13:57.204Z,12.70
2023-05-02T08:14:58.824Z,12.60
2023-05-02T08:16:00.693Z,12.50
2023-05-02T08:17:02.367Z,12.40
2023-05-02T08:18:04.102Z,12.20
2023-05-02T08:19:06.014Z,12.00
2023-05-02T08:20:08.227Z,12.00
2023-05-02T08:21:09.962Z,12.00
2023-05-02T08:22:11.598Z,11.90
2023-05-02T08:23:13.196Z,11.90
2023-05-02T08:24:15.026Z,11.80
2023-05-02T08:25:16.794Z,11.80
2023-05-02T08:26:19.018Z,11.90
2023-05-02T08:27:20.692Z,11.80
2023-05-02T08:28:22.381Z,11.80
2023-05-02T08:29:24.756Z,11.80
2023-05-02T08:30:26.470Z,11.60
2023-05-02T08:31:28.108Z,11.70
2023-05-02T08:32:30.063Z,11.70
2023-05-02T08:33:31.871Z,11.60
2023-05-02T08:34:33.851Z,11.50
2023-05-02T08:35:35.453Z,11.50
2023-05-02T08:36:37.269Z,11.30
2023-05-02T08:37:39.808Z,11.30
2023-05-02T08:38:45.456Z,11.30
2023-05-02T08:39:47.026Z,11.20
2023-05-02T08:40:48.698Z,11.20
2023-05-02T08:41:50.344Z,11.10
2023-05-02T08:42:52.689Z,11.10
2023-05-02T08:43:56.276Z,11.20
2023-05-02T08:44:58.225Z,11.20
2023-05-02T08:46:01.793Z,11.20
2023-05-02T08:47:04.794Z,11.10
2023-05-02T08:48:10.274Z,11.00
2023-05-02T08:49:14.970Z,10.90
2023-05-02T08:50:19.272Z,10.90
2023-05-02T08:51:24.286Z,10.90
2023-05-02T08:52:26.920Z,11.00
2023-05-02T08:53:32.158Z,10.80
2023-05-02T08:54:34.315Z,10.70
2023-05-02T08:55:40.238Z,10.70
2023-05-02T08:56:42.154Z,10.80
2023-05-02T08:57:44.036Z,10.80
2023-05-02T08:58:45.694Z,10.90
2023-05-02T08:59:48.566Z,10.90
2023-05-02T09:00:52.436Z,11.00
2023-05-02T09:01:59.936Z,11.10
2023-05-02T09:03:23.338Z,11.10
2023-05-02T09:04:30.765Z,11.10
2023-05-02T09:05:41.311Z,11.10
2023-05-02T09:06:42.943Z,11.00
2023-05-02T09:07:49.275Z,11.00
2023-05-02T09:08:54.913Z,11.00
2023-05-02T09:09:56.779Z,10.90
2023-05-02T09:10:58.900Z,10.90
2023-05-02T09:12:00.968Z,11.00
2023-05-02T09:13:28.444Z,11.10
2023-05-02T09:14:30.200Z,11.10
2023-05-02T09:15:31.834Z,11.10
2023-05-02T09:16:39.938Z,11.20
2023-05-02T09:17:43.413Z,11.20
2023-05-02T09:18:49.987Z,11.20
2023-05-02T09:20:01.082Z,11.20
2023-05-02T09:21:09.740Z,11.20
2023-05-02T09:22:11.383Z,11.30
2023-05-02T09:23:13.149Z,11.30
2023-05-02T09:24:18.948Z,11.30
2023-05-02T09:25:21.362Z,11.40
2023-05-02T09:26:33.903Z,11.40
2023-05-02T09:27:55.204Z,11.40
2023-05-02T09:28:58.128Z,11.30
2023-05-02T09:30:19.432Z,11.30
2023-05-02T09:32:47.201Z,11.40
2023-05-02T09:33:49.473Z,11.50
2023-05-02T09:35:07.001Z,11.60
2023-05-02T09:36:11.316Z,11.60
2023-05-02T09:37:36.234Z,11.60
2023-05-02T09:38:38.851Z,11.50
2023-05-02T09:39:40.459Z,11.40
2023-05-02T09:40:54.605Z,11.50
2023-05-02T09:41:56.956Z,11.50
2023-05-02T09:42:58.747Z,11.50
2023-05-02T09:44:00.327Z,11.60
2023-05-02T09:45:02.218Z,11.70
2023-05-02T09:46:06.963Z,11.70
2023-05-02T09:47:08.877Z,11.70
2023-05-02T09:48:12.052Z,11.70
2023-05-02T09:49:18.883Z,11.60
2023-05-02T09:50:37.675Z,11.50
2023-05-02T09:51:39.402Z,11.50
2023-05-02T09:52:41.199Z,11.50
2023-05-02T09:53:45.117Z,11.50
2023-05-02T09:54:47.536Z,11.60
2023-05-02T09:55:58.879Z,11.60
2023-05-02T09:57:02.086Z,11.60
2023-05-02T09:58:04.033Z,11.70
2023-05-02T09:59:16.347Z,11.70
2023-05-02T10:00:19.519Z,11.70
2023-05-02T10:01:21.522Z,11.80
2023-05-02T10:02:25.060Z,11.80
2023-05-02T10:03:28.487Z,11.80
2023-05-02T10:04:32.257Z,11.60
2023-05-02T10:05:38.849Z,11.60
2023-05-02T10:06:40.639Z,11.50
2023-05-02T10:07:42.549Z,11.50
2023-05-02T10:08:45.506Z,11.50
2023-05-02T10:09:50.175Z,11.50
2023-05-02T10:10:58.023Z,11.50
2023-05-02T10:12:06.648Z,11.40
2023-05-02T10:13:09.894Z,11.40
2023-05-02T10:14:12.361Z,11.50
2023-05-02T10:15:16.989Z,11.50
2023-05-02T10:16:28.884Z,11.60
2023-05-02T10:18:53.887Z,11.70
2023-05-02T10:19:59.953Z,11.80
2023-05-02T10:21:11.862Z,11.70
2023-05-02T10:22:13.843Z,11.80
2023-05-02T10:23:17.040Z,11.80
2023-05-02T10:24:19.666Z,11.80
2023-05-02T10:25:21.518Z,11.80
2023-05-02T10:26:23.525Z,11.80
2023-05-02T10:27:25.851Z,12.00
2023-05-02T10:28:28.162Z,12.00
2023-05-02T10:29:31.523Z,12.10
2023-05-02T10:30:35.237Z,12.20
2023-05-02T10:31:39.576Z,12.20
2023-05-02T10:32:41.739Z,12.30
2023-05-02T10:33:43.658Z,12.40
2023-05-02T10:34:47.530Z,12.50
2023-05-02T10:35:49.609Z,12.60
2023-05-02T10:36:51.159Z,12.60
2023-05-02T10:37:53.431Z,12.50
2023-05-02T10:38:55.555Z,12.50
2023-05-02T10:39:58.813Z,12.50
2023-05-02T10:41:04.901Z,12.60
2023-05-02T10:42:07.805Z,12.60
2023-05-02T10:43:15.315Z,12.50
2023-05-02T10:44:19.228Z,12.40
2023-05-02T10:45:50.837Z,12.30
2023-05-02T10:46:53.292Z,12.30
2023-05-02T10:48:19.496Z,12.40
2023-05-02T10:49:23.678Z,12.50
2023-05-02T10:51:02.978Z,12.50
2023-05-02T10:52:35.143Z,12.60
2023-05-02T10:55:20.975Z,12.90
2023-05-02T10:56:22.738Z,13.20
2023-05-02T10:57:24.336Z,13.20
2023-05-02T10:58:25.988Z,13.30
2023-05-02T10:59:28.632Z,13.30
2023-05-02T11:00:35.137Z,13.20
2023-05-02T11:01:39.643Z,13.20
2023-05-02T11:02:44.549Z,13.20
2023-05-02T11:04:00.726Z,13.10
2023-05-02T11:05:06.597Z,13.00
2023-05-02T11:06:08.376Z,13.00
2023-05-02T11:07:17.138Z,12.90
2023-05-02T11:08:23.243Z,12.90
2023-05-02T11:09:25.100Z,13.00
2023-05-02T11:10:27.442Z,12.90
2023-05-02T11:11:43.486Z,12.90
2023-05-02T11:12:52.121Z,12.80
2023-05-02T11:13:53.710Z,12.60
2023-05-02T11:14:55.345Z,12.60
2023-05-02T11:15:57.067Z,12.60
2023-05-02T11:16:59.047Z,12.60
2023-05-02T11:18:08.848Z,12.50
2023-05-02T11:19:10.562Z,12.40
2023-05-02T11:20:15.362Z,12.30
2023-05-02T11:21:28.699Z,12.30
2023-05-02T11:22:34.203Z,12.20
2023-05-02T11:23:37.064Z,12.20
2023-05-02T11:24:47.535Z,12.10
2023-05-02T11:26:00.899Z,11.90
2023-05-02T11:27:30.199Z,11.90
2023-05-02T11:28:37.595Z,11.90
2023-05-02T11:29:55.726Z,11.80
2023-05-02T11:30:57.989Z,11.90
2023-05-02T11:31:59.727Z,11.90
2023-05-02T11:33:04.462Z,11.90
2023-05-02T11:34:06.134Z,11.80
2023-05-02T11:35:08.230Z,11.80
2023-05-02T11:36:09.857Z,11.90
2023-05-02T11:37:15.633Z,11.80
2023-05-02T11:38:18.754Z,11.80
2023-05-02T11:39:21.771Z,11.80
2023-05-02T11:40:24.576Z,11.80
2023-05-02T11:41:42.092Z,11.80
2023-05-02T11:42:43.745Z,11.80
2023-05-02T11:43:45.371Z,11.70
2023-05-02T11:45:01.138Z,11.60
2023-05-02T11:46:05.266Z,11.50
2023-05-02T11:47:07.673Z,11.50
2023-05-02T11:48:11.882Z,11.50
2023-05-02T11:49:14.999Z,11.50
2023-05-02T11:50:17.981Z,11.50
2023-05-02T11:51:23.346Z,11.40
2023-05-02T11:52:25.159Z,11.50
2023-05-02T11:53:31.981Z,11.50
2023-05-02T11:54:33.666Z,11.40
2023-05-02T11:55:35.659Z,11.40
2023-05-02T11:56:38.095Z,11.40
2023-05-02T11:57:40.631Z,11.40
2023-05-02T11:58:43.995Z,11.50
2023-05-02T11:59:57.432Z,11.60
2023-05-02T12:01:11.415Z,11.60
2023-05-02T12:02:13.032Z,11.60
2023-05-02T12:03:27.144Z,11.60
2023-05-02T12:04:28.808Z,11.50
2023-05-02T12:05:30.598Z,11.40
2023-05-02T12:06:32.538Z,11.40
2023-05-02T12:07:38.891Z,11.30
2023-05-02T12:08:42.457Z,11.20
2023-05-02T12:09:53.746Z,11.10
2023-05-02T12:10:56.726Z,11.10
2023-05-02T12:11:58.762Z,11.20
2023-05-02T12:13:05.587Z,11.30
2023-05-02T12:14:07.312Z,11.40
2023-05-02T12:15:10.960Z,11.40
2023-05-02T12:16:13.085Z,11.40
2023-05-02T12:17:15.274Z,11.40
2023-05-02T12:18:18.994Z,11.50
2023-05-02T12:19:22.145Z,11.50
2023-05-02T12:20:23.979Z,11.60
2023-05-02T12:21:28.386Z,11.60
2023-05-02T12:22:31.905Z,11.60
2023-05-02T12:23:35.207Z,11.70
2023-05-02T12:24:37.860Z,11.80
2023-05-02T12:25:43.611Z,11.80
2023-05-02T12:26:45.223Z,11.90
2023-05-02T12:28:03.586Z,11.90
2023-05-02T12:29:07.683Z,11.80
2023-05-02T12:30:09.563Z,11.80
2023-05-02T12:31:11.375Z,11.80
2023-05-02T12:32:14.507Z,11.70
2023-05-02T12:33:17.371Z,11.80
2023-05-02T12:34:35.797Z,11.90
2023-05-02T12:35:37.418Z,12.00
2023-05-02T12:36:45.306Z,12.00
2023-05-02T12:37:47.461Z,12.10
2023-05-02T12:38:54.870Z,12.00
2023-05-02T12:39:56.961Z,12.10
2023-05-02T12:40:58.643Z,12.00
2023-05-02T12:42:00.357Z,12.00
2023-05-02T12:43:10.458Z,12.00
2023-05-02T12:44:12.277Z,12.00
2023-05-02T12:45:17.381Z,12.00
2023-05-02T12:46:18.953Z,12.00
2023-05-02T12:47:22.590Z,12.00
2023-05-02T12:48:28.334Z,11.80
2023-05-02T12:49:30.153Z,11.80
2023-05-02T12:50:40.943Z,11.80
2023-05-02T12:51:53.910Z,11.80
2023-05-02T12:52:59.877Z,11.70
2023-05-02T12:54:01.492Z,11.80
2023-05-02T12:55:29.414Z,11.80
2023-05-02T12:56:38.216Z,11.70
2023-05-02T12:57:40.620Z,11.70
2023-05-02T12:58:49.213Z,11.80
2023-05-02T12:59:54.103Z,11.70
2023-05-02T13:00:56.142Z,11.70
2023-05-02T13:01:58.675Z,11.80
2023-05-02T13:03:00.380Z,11.80
2023-05-02T13:04:02.077Z,11.80
2023-05-02T13:05:19.899Z,11.60
2023-05-02T13:06:21.516Z,11.60
2023-05-02T13:07:23.173Z,11.70
2023-05-02T13:08:24.760Z,11.70
2023-05-02T13:09:26.991Z,11.80
2023-05-02T13:10:28.791Z,11.70
2023-05-02T13:11:30.410Z,11.80
2023-05-02T13:12:32.349Z,11.80
2023-05-02T13:13:35.117Z,11.80
2023-05-02T13:14:36.701Z,11.80
2023-05-02T13:15:38.291Z,11.80
2023-05-02T13:16:40.341Z,11.70
2023-05-02T13:17:42.179Z,11.70
2023-05-02T13:18:45.659Z,11.70
2023-05-02T13:20:00.308Z,11.70
2023-05-02T13:21:04.032Z,11.60
2023-05-02T13:22:05.733Z,11.60
2023-05-02T13:23:07.308Z,11.70
2023-05-02T13:24:08.875Z,11.70
2023-05-02T13:25:10.630Z,11.80
2023-05-02T13:26:12.294Z,11.80
2023-05-02T13:27:14.046Z,11.80
2023-05-02T13:28:15.659Z,11.90
2023-05-02T13:29:17.305Z,11.80
2023-05-02T13:30:18.943Z,11.80
2023-05-02T13:31:20.610Z,11.70
2023-05-02T13:32:22.485Z,11.70
2023-05-02T13:33:24.161Z,11.70
2023-05-02T13:34:25.898Z,11.80
2023-05-02T13:35:27.529Z,11.80
2023-05-02T13:36:29.130Z,11.70
2023-05-02T13:37:31.301Z,11.80
2023-05-02T13:38:33.926Z,11.80
2023-05-02T13:39:35.787Z,11.80
2023-05-02T13:40:37.450Z,11.90
2023-05-02T13:41:39.144Z,11.80
2023-05-02T13:42:40.844Z,11.80
2023-05-02T13:43:42.508Z,11.70
2023-05-02T13:44:44.126Z,11.80
2023-05-02T13:45:48.195Z,11.80
2023-05-02T13:46:49.809Z,11.80
2023-05-02T13:47:51.655Z,11.80
2023-05-02T13:48:53.271Z,11.80
2023-05-02T13:49:55.469Z,11.80
2023-05-02T13:50:59.020Z,11.80